Time;durP1;ratioP1;P1;durP2;ratioP2;P2;SDS_P1;SDS_P2;PMS_P1;PMS_P2;Temp;Humidity;BMP_temperature;BMP_pressure;BME280_temperature;BME280_humidity;BME280_pressure;Samples;Min_cycle;Max_cycle;Signal;HPM_P1;HPM_P2
2023/01/02 00:02:00;;;;;;;9.77;5.93;;;;;;;13.12;72.42;101095.94;4937514;29;20854;-72
2023/01/02 00:04:28;;;;;;;9.87;4.67;;;;;;;13.34;71.43;101105.50;4937187;29;20668;-71
2023/01/02 00:07:00;;;;;;;6.43;4.73;;;;;;;13.16;72.16;101089.06;4937054;29;20520;-71
2023/01/02 00:09:29;;;;;;;9.70;5.80;;;;;;;13.03;72.97;101080.88;4937236;29;20443;-71
2023/01/02 00:11:58;;;;;;;9.60;7.33;;;;;;;13.19;72.39;101080.47;4937292;29;20958;-72
2023/01/02 00:14:27;;;;;;;7.90;5.80;;;;;;;13.11;72.65;101078.00;4937123;29;20458;-72
2023/01/02 00:16:56;;;;;;;11.93;6.10;;;;;;;12.97;73.23;101071.72;4937350;29;20446;-69
2023/01/02 00:19:25;;;;;;;10.37;6.20;;;;;;;12.90;73.87;101070.06;4936999;29;20418;-72
2023/01/02 00:21:54;;;;;;;11.73;6.40;;;;;;;12.83;74.24;101063.84;4940770;29;20418;-71
2023/01/02 00:24:24;;;;;;;9.80;5.63;;;;;;;12.91;74.05;101050.84;4917856;29;20791;-71
2023/01/02 00:26:53;;;;;;;8.20;5.47;;;;;;;12.97;73.64;101043.72;4936893;29;20746;-71
2023/01/02 00:29:23;;;;;;;11.50;7.43;;;;;;;12.96;73.68;101050.22;4936678;29;20755;-70
2023/01/02 00:31:52;;;;;;;9.80;5.50;;;;;;;13.15;73.03;101054.78;4935967;29;20441;-72
2023/01/02 00:34:21;;;;;;;9.37;5.30;;;;;;;13.08;73.32;101045.75;4935718;29;20863;-72
2023/01/02 00:36:50;;;;;;;9.20;5.37;;;;;;;12.96;73.89;101042.06;4935681;29;20841;-73
2023/01/02 00:39:19;;;;;;;10.43;6.17;;;;;;;12.84;74.21;101051.91;4935931;29;20452;-73
2023/01/02 00:41:50;;;;;;;14.27;7.37;;;;;;;12.80;74.74;101054.22;4936424;29;20475;-71
2023/01/02 00:44:19;;;;;;;14.40;9.40;;;;;;;12.87;74.59;101049.63;4935717;29;20821;-71
2023/01/02 00:46:48;;;;;;;7.50;5.63;;;;;;;12.77;74.67;101041.06;4936275;29;20412;-72
2023/01/02 00:49:17;;;;;;;10.23;5.43;;;;;;;12.78;75.00;101044.63;4936166;29;20942;-71
2023/01/02 00:51:46;;;;;;;7.27;5.30;;;;;;;12.85;74.46;101050.88;4936115;29;20428;-71
2023/01/02 00:54:15;;;;;;;6.77;4.90;;;;;;;13.02;73.68;101052.88;4935191;29;20996;-71
2023/01/02 00:56:44;;;;;;;15.07;6.20;;;;;;;12.84;74.33;101050.03;4936185;29;20759;-70
2023/01/02 00:59:14;;;;;;;12.13;5.07;;;;;;;12.86;74.01;101052.53;4936464;29;20567;-70
2023/01/02 01:01:43;;;;;;;12.10;5.20;;;;;;;12.86;74.46;101049.81;4935787;29;20437;-71
2023/01/02 01:04:13;;;;;;;9.50;4.57;;;;;;;12.94;74.68;101041.44;4935568;29;20430;-72
2023/01/02 01:06:42;;;;;;;6.63;4.10;;;;;;;13.01;74.29;101040.38;4936268;29;20407;-71
2023/01/02 01:09:12;;;;;;;12.20;4.27;;;;;;;12.92;74.63;101041.66;4935848;29;20929;-71
2023/01/02 01:11:41;;;;;;;6.53;4.60;;;;;;;12.90;74.51;101042.91;4936003;29;20403;-70
2023/01/02 01:14:10;;;;;;;13.80;5.73;;;;;;;13.03;74.19;101037.41;4935746;29;20456;-70
2023/01/02 01:16:40;;;;;;;11.07;5.20;;;;;;;12.99;74.40;101028.03;4935985;29;20523;-71
2023/01/02 01:19:09;;;;;;;8.50;5.70;;;;;;;12.87;74.83;101033.31;4936630;29;20427;-70
2023/01/02 01:21:39;;;;;;;7.17;4.50;;;;;;;12.84;74.73;101027.47;4936808;29;20491;-72
2023/01/02 01:24:08;;;;;;;11.70;5.03;;;;;;;12.74;75.37;101021.63;4929013;29;20464;-70
2023/01/02 01:26:37;;;;;;;8.63;4.83;;;;;;;12.69;75.44;101016.00;4937185;29;20454;-72
2023/01/02 01:29:06;;;;;;;8.30;4.63;;;;;;;12.79;75.49;101019.94;4936220;29;20445;-72
2023/01/02 01:31:35;;;;;;;7.13;4.17;;;;;;;12.70;75.59;101015.81;4938059;29;20440;-72
2023/01/02 01:34:05;;;;;;;9.90;4.50;;;;;;;12.84;74.92;101005.72;4936238;29;21006;-72
2023/01/02 01:36:37;;;;;;;6.83;5.20;;;;;;;12.75;75.26;101001.59;4937365;29;20475;-70
2023/01/02 01:39:06;;;;;;;10.33;4.40;;;;;;;12.71;75.28;100995.75;4940935;29;20456;-72
2023/01/02 01:41:38;;;;;;;5.47;3.70;;;;;;;12.67;75.54;100986.38;4946113;28;20897;-74
2023/01/02 01:44:40;;;;;;;10.13;5.10;;;;;;;12.68;75.74;100988.06;4942819;29;20426;-73
2023/01/02 01:47:17;;;;;;;9.50;4.60;;;;;;;12.61;75.55;100995.38;4943146;29;20444;-72
2023/01/02 01:49:49;;;;;;;6.23;4.40;;;;;;;12.58;75.88;100985.78;4936690;29;20428;-71
2023/01/02 01:52:23;;;;;;;5.97;3.93;;;;;;;12.83;74.43;100976.94;4936744;29;20448;-71
2023/01/02 01:54:56;;;;;;;8.47;4.73;;;;;;;12.82;74.55;100975.25;4932909;29;20442;-72
2023/01/02 01:57:30;;;;;;;10.03;4.37;;;;;;;12.95;73.91;100981.47;4935638;29;20435;-72
2023/01/02 02:00:02;;;;;;;19.27;6.23;;;;;;;12.90;73.88;100972.28;4936792;29;20507;-73
2023/01/02 02:02:34;;;;;;;6.40;4.37;;;;;;;12.83;73.86;100976.94;4936253;29;20446;-71
2023/01/02 02:05:07;;;;;;;7.37;4.30;;;;;;;12.84;73.94;100956.84;4936064;29;20560;-72
2023/01/02 02:07:45;;;;;;;12.50;5.00;;;;;;;12.88;73.95;100961.63;4936297;29;20906;-72
2023/01/02 02:10:14;;;;;;;9.57;4.53;;;;;;;12.85;74.04;100958.53;4935693;29;20418;-72
2023/01/02 02:12:43;;;;;;;7.93;3.80;;;;;;;12.90;73.97;100961.44;4936439;29;20502;-70
2023/01/02 02:15:19;;;;;;;9.67;4.80;;;;;;;12.97;73.57;100946.75;4935429;29;20445;-70
2023/01/02 02:18:01;;;;;;;15.90;4.83;;;;;;;13.13;72.42;100947.34;4935784;29;21040;-71
2023/01/02 02:20:48;;;;;;;10.43;4.53;;;;;;;13.04;72.81;100930.44;4939807;29;20454;-71
2023/01/02 02:24:00;;;;;;;14.13;4.83;;;;;;;13.04;72.50;100927.72;4933423;29;20958;-71
2023/01/02 02:27:02;;;;;;;8.77;4.10;;;;;;;13.24;71.39;100924.91;4937965;29;20506;-72
2023/01/02 02:30:04;;;;;;;7.50;5.30;;;;;;;13.17;71.39;100905.13;4957142;28;20440;-75
2023/01/02 02:32:44;;;;;;;7.33;4.50;;;;;;;13.15;71.36;100897.19;4959172;28;20444;-73
2023/01/02 02:35:24;;;;;;;8.73;4.83;;;;;;;13.15;71.16;100891.75;4958095;28;20451;-72
2023/01/02 02:37:59;;;;;;;6.33;4.17;;;;;;;13.30;70.72;100892.28;4955304;28;20484;-71
2023/01/02 02:40:37;;;;;;;11.20;4.17;;;;;;;13.19;71.17;100873.09;4942671;29;20414;-73
2023/01/02 02:43:17;;;;;;;5.37;4.30;;;;;;;13.31;70.59;100896.63;4939816;29;20435;-72
2023/01/02 02:45:57;;;;;;;11.80;4.37;;;;;;;13.25;70.95;100878.50;4932554;29;20920;-71
2023/01/02 02:48:33;;;;;;;7.43;4.70;;;;;;;13.28;70.94;100882.66;4932823;29;20406;-74
2023/01/02 02:51:05;;;;;;;8.37;4.80;;;;;;;13.33;70.24;100893.69;4934330;29;20451;-72
2023/01/02 02:53:41;;;;;;;7.53;4.00;;;;;;;13.27;70.46;100898.13;4934128;29;20431;-70
2023/01/02 02:56:13;;;;;;;13.47;5.23;;;;;;;13.28;70.25;100893.53;4935122;29;20539;-72
2023/01/02 02:58:44;;;;;;;7.33;4.40;;;;;;;13.30;70.21;100897.72;4930916;29;20973;-72
2023/01/02 03:01:18;;;;;;;6.43;4.17;;;;;;;13.27;70.15;100881.81;4933958;29;20770;-71
2023/01/02 03:03:47;;;;;;;7.70;4.43;;;;;;;13.26;69.96;100876.63;4935081;29;20414;-70
2023/01/02 03:06:29;;;;;;;7.80;5.13;;;;;;;13.32;69.78;100873.84;4934490;29;20403;-73
2023/01/02 03:09:10;;;;;;;5.67;4.10;;;;;;;13.22;70.32;100869.94;4938731;29;20436;-73
2023/01/02 03:11:48;;;;;;;7.80;4.80;;;;;;;13.25;69.85;100873.06;4937145;29;20407;-72
2023/01/02 03:14:27;;;;;;;9.03;4.80;;;;;;;13.23;70.24;100858.84;4937094;29;20551;-73
2023/01/02 03:17:03;;;;;;;10.20;5.70;;;;;;;13.15;70.18;100850.16;4937515;29;20449;-72
2023/01/02 03:19:40;;;;;;;13.47;4.67;;;;;;;13.18;70.27;100853.25;4938375;29;20407;-71
2023/01/02 03:22:15;;;;;;;8.13;5.60;;;;;;;13.02;70.84;100856.50;4926338;29;20542;-71
2023/01/02 03:24:46;;;;;;;6.13;5.50;;;;;;;13.15;70.25;100861.84;4935520;29;21009;-70
2023/01/02 03:27:21;;;;;;;7.07;5.63;;;;;;;13.19;69.96;100860.34;4937760;29;20502;-73
2023/01/02 03:29:56;;;;;;;9.87;5.60;;;;;;;13.19;70.19;100863.06;4937302;29;20407;-72
2023/01/02 03:32:30;;;;;;;9.70;5.07;;;;;;;13.21;69.65;100860.16;4936957;29;20874;-71
2023/01/02 03:35:03;;;;;;;11.73;5.97;;;;;;;13.12;69.93;100856.84;4937442;29;20467;-71
2023/01/02 03:37:36;;;;;;;7.30;4.30;;;;;;;13.14;70.16;100854.75;4942593;29;20922;-72
2023/01/02 03:40:11;;;;;;;9.23;5.73;;;;;;;13.18;70.08;100855.97;4951460;29;20399;-73
2023/01/02 03:42:45;;;;;;;7.57;4.70;;;;;;;12.98;70.55;100855.22;4943842;29;20432;-73
2023/01/02 03:45:18;;;;;;;13.87;4.73;;;;;;;13.18;69.60;100842.38;4946576;29;20462;-70
2023/01/02 03:47:57;;;;;;;9.47;5.37;;;;;;;13.29;69.21;100851.72;4940814;29;20428;-70
2023/01/02 03:50:32;;;;;;;6.60;4.50;;;;;;;13.31;68.80;100853.13;4940059;29;20407;-71
2023/01/02 03:53:02;;;;;;;13.20;5.47;;;;;;;13.24;69.00;100852.38;4936828;29;20410;-71
2023/01/02 03:55:35;;;;;;;7.30;5.20;;;;;;;13.20;69.10;100843.00;4941550;29;20464;-72
2023/01/02 03:58:10;;;;;;;5.20;4.70;;;;;;;13.35;68.65;100842.69;4939854;29;20484;-70
2023/01/02 04:00:51;;;;;;;10.03;5.23;;;;;;;13.23;68.82;100842.56;4936942;29;20409;-71
2023/01/02 04:03:29;;;;;;;8.93;4.67;;;;;;;13.17;68.89;100834.47;4937518;29;20918;-72
2023/01/02 04:06:04;;;;;;;6.60;4.37;;;;;;;13.21;68.60;100844.69;4937232;29;20437;-72
2023/01/02 04:08:38;;;;;;;6.17;4.33;;;;;;;13.28;68.41;100842.72;4937290;29;20403;-73
2023/01/02 04:11:07;;;;;;;11.47;5.67;;;;;;;13.37;67.82;100838.69;4936764;29;20423;-72
2023/01/02 04:13:42;;;;;;;4.20;3.80;;;;;;;13.43;67.65;100826.91;4935925;29;20464;-72
2023/01/02 04:16:17;;;;;;;5.90;4.50;;;;;;;13.48;67.38;100826.25;4936994;29;20539;-72
2023/01/02 04:18:57;;;;;;;6.33;4.70;;;;;;;13.39;67.66;100831.16;4929957;29;20813;-73
2023/01/02 04:21:29;;;;;;;6.50;5.17;;;;;;;13.38;67.40;100834.06;4935103;29;20407;-71
2023/01/02 04:24:05;;;;;;;5.00;4.10;;;;;;;13.42;67.49;100830.69;4935812;29;20813;-69
2023/01/02 04:26:41;;;;;;;10.00;4.70;;;;;;;13.45;67.52;100829.44;4936912;29;20524;-73
2023/01/02 04:29:10;;;;;;;5.93;4.50;;;;;;;13.51;66.93;100833.16;4936678;29;20407;-72
2023/01/02 04:31:45;;;;;;;12.00;5.27;;;;;;;13.66;66.37;100829.00;4934178;29;20444;-73
2023/01/02 04:34:18;;;;;;;6.67;4.40;;;;;;;13.75;65.89;100818.66;4934970;29;20452;-70
2023/01/02 04:36:47;;;;;;;8.00;4.50;;;;;;;13.70;65.97;100818.53;4941595;29;20424;-71
2023/01/02 04:39:17;;;;;;;6.80;4.20;;;;;;;13.60;66.29;100810.06;4980549;23;20602;-83
2023/01/02 04:42:06;;;;;;;6.40;4.70;;;;;;;13.73;65.82;100815.34;4981599;28;20533;-85
2023/01/02 04:44:35;;;;;;;6.47;4.03;;;;;;;13.62;65.97;100818.81;4957334;29;20917;-82
2023/01/02 04:47:33;;;;;;;5.20;4.27;;;;;;;13.61;66.22;100814.41;4980570;28;20450;-84
2023/01/02 04:57:24;;;;;;;6.83;4.30;;;;;;;13.77;65.59;100817.41;4942299;29;20460;-84
2023/01/02 05:00:25;;;;;;;7.60;4.73;;;;;;;13.79;65.36;100825.34;4943468;29;20501;-84
2023/01/02 05:02:58;;;;;;;5.87;4.20;;;;;;;13.74;65.44;100815.13;4945030;29;20498;-86
2023/01/02 05:08:35;;;;;;;10.07;4.80;;;;;;;13.97;64.30;100808.19;4942506;29;20442;-84
2023/01/02 05:15:26;;;;;;;8.73;4.37;;;;;;;13.92;64.51;100811.59;4955885;28;20420;-84
2023/01/02 05:17:56;;;;;;;6.93;5.30;;;;;;;13.94;64.38;100810.28;4962783;29;20486;-83
2023/01/02 05:20:26;;;;;;;10.63;5.00;;;;;;;14.09;63.82;100820.81;4956758;29;20419;-84
2023/01/02 05:25:47;;;;;;;9.63;5.80;;;;;;;13.92;64.04;100811.59;4947196;29;20462;-84
2023/01/02 05:28:16;;;;;;;8.93;6.10;;;;;;;14.03;63.80;100810.84;4946477;29;20468;-83
2023/01/02 05:30:48;;;;;;;6.17;4.00;;;;;;;14.09;63.47;100812.63;4933464;29;20470;-85
2023/01/02 05:33:17;;;;;;;6.37;3.93;;;;;;;14.08;63.12;100812.88;4941845;29;20434;-84
2023/01/02 05:35:47;;;;;;;6.23;4.40;;;;;;;14.04;63.28;100811.69;4939163;29;20436;-84
2023/01/02 05:38:16;;;;;;;13.83;6.33;;;;;;;14.01;63.54;100806.69;4957768;29;20479;-85
2023/01/02 05:40:47;;;;;;;6.93;4.73;;;;;;;14.04;63.12;100801.59;4957067;29;20478;-83
2023/01/02 05:43:16;;;;;;;6.77;5.23;;;;;;;13.98;63.41;100796.25;4972211;29;20399;-84
2023/01/02 05:45:45;;;;;;;5.60;4.30;;;;;;;13.98;63.17;100791.66;4960268;29;20411;-85
2023/01/02 05:48:15;;;;;;;5.97;4.03;;;;;;;14.09;63.05;100803.63;4944065;29;20487;-84
2023/01/02 05:50:44;;;;;;;7.77;4.13;;;;;;;14.10;62.85;100797.97;4944072;29;20454;-84
2023/01/02 05:53:13;;;;;;;6.20;3.97;;;;;;;14.12;62.71;100803.22;4948188;29;20447;-84
2023/01/02 05:55:43;;;;;;;5.60;4.43;;;;;;;14.12;62.48;100797.75;4945051;29;20463;-82
2023/01/02 05:58:15;;;;;;;8.13;4.00;;;;;;;13.96;63.23;100803.81;4930547;29;20479;-85
2023/01/02 06:00:44;;;;;;;5.90;4.60;;;;;;;13.96;63.21;100807.34;4948918;29;20639;-86
2023/01/02 06:03:13;;;;;;;11.57;5.00;;;;;;;13.84;63.68;100798.31;4953951;29;20519;-85
2023/01/02 06:05:43;;;;;;;7.70;5.10;;;;;;;13.91;63.36;100799.88;4965525;28;20419;-85
2023/01/02 06:08:12;;;;;;;9.70;4.57;;;;;;;13.90;63.37;100805.53;4946945;29;20473;-85
2023/01/02 06:10:50;;;;;;;7.83;4.87;;;;;;;13.92;63.24;100803.44;4955887;29;20464;-86
2023/01/02 06:13:21;;;;;;;9.50;4.40;;;;;;;14.02;63.19;100803.75;4945405;29;20455;-85
2023/01/02 06:15:50;;;;;;;5.23;4.00;;;;;;;13.91;63.25;100807.19;4957901;29;20482;-85
2023/01/02 06:18:19;;;;;;;7.10;4.90;;;;;;;13.99;62.98;100809.63;4946834;29;20527;-84
2023/01/02 06:20:49;;;;;;;6.07;3.73;;;;;;;13.89;63.15;100798.47;4951934;29;20446;-85
2023/01/02 06:23:18;;;;;;;6.30;4.00;;;;;;;13.95;62.78;100802.97;4946793;29;20444;-85
2023/01/02 06:25:47;;;;;;;11.70;5.60;;;;;;;14.05;62.54;100802.44;4945892;29;20443;-85
2023/01/02 06:28:17;;;;;;;5.83;4.03;;;;;;;14.01;62.46;100802.06;4955822;29;20509;-85
2023/01/02 06:30:47;;;;;;;7.00;4.67;;;;;;;13.90;62.90;100805.53;4956330;29;20451;-85
2023/01/02 06:33:17;;;;;;;6.70;4.17;;;;;;;13.87;62.99;100800.56;4973290;29;20938;-83
2023/01/02 06:35:46;;;;;;;8.97;4.40;;;;;;;13.94;62.61;100798.59;4961636;29;20430;-84
2023/01/02 06:38:15;;;;;;;7.87;3.83;;;;;;;14.07;62.30;100806.63;4956853;29;20446;-84
2023/01/02 06:41:07;;;;;;;8.27;4.00;;;;;;;14.05;62.34;100797.84;4948376;29;20507;-85
2023/01/02 06:43:37;;;;;;;6.30;5.23;;;;;;;14.22;61.66;100808.94;4973890;29;20426;-87
2023/01/02 06:46:08;;;;;;;6.07;3.77;;;;;;;14.09;62.05;100809.91;4973449;29;20534;-86
2023/01/02 06:48:37;;;;;;;11.87;3.93;;;;;;;14.16;61.78;100807.13;4938583;29;20985;-86
2023/01/02 06:51:32;;;;;;;6.33;3.73;;;;;;;14.27;61.53;100812.66;4958111;29;20855;-84
2023/01/02 06:54:02;;;;;;;4.27;3.53;;;;;;;14.40;60.94;100813.56;4946652;29;20506;-84
2023/01/02 06:56:32;;;;;;;5.80;3.70;;;;;;;14.29;61.05;100815.13;4945744;29;20436;-84
2023/01/02 06:59:37;;;;;;;6.60;4.53;;;;;;;14.24;61.32;100817.69;4943943;29;20463;-83
2023/01/02 07:02:25;;;;;;;6.60;4.20;;;;;;;14.19;61.40;100810.22;4945559;29;20936;-83
2023/01/02 07:04:55;;;;;;;8.10;3.47;;;;;;;14.25;61.24;100808.47;4945362;29;20805;-83
2023/01/02 07:10:42;;;;;;;4.70;3.60;;;;;;;14.31;60.91;100813.03;4971287;28;20457;-82
2023/01/02 07:13:19;;;;;;;5.87;3.83;;;;;;;14.33;60.80;100814.44;4940302;29;20454;-81
2023/01/02 07:15:50;;;;;;;7.60;3.87;;;;;;;14.45;60.64;100820.00;4967018;29;20435;-80
2023/01/02 07:22:44;;;;;;;7.97;3.93;;;;;;;14.42;60.56;100825.91;4976209;28;20451;-83
2023/01/02 07:25:29;;;;;;;9.20;4.27;;;;;;;14.38;60.44;100834.75;4977756;23;20463;31
2023/01/02 07:28:00;;;;;;;9.07;4.50;;;;;;;14.31;60.74;100829.34;4917351;29;20440;-74
2023/01/02 07:30:33;;;;;;;5.90;4.00;;;;;;;14.24;61.17;100829.41;4921730;29;21345;-74
2023/01/02 07:33:03;;;;;;;7.70;4.13;;;;;;;14.39;60.62;100830.94;4919462;29;20774;-74
2023/01/02 07:35:32;;;;;;;7.40;4.63;;;;;;;14.35;60.66;100828.66;4917814;29;20457;-73
2023/01/02 07:38:02;;;;;;;9.20;4.17;;;;;;;14.43;60.44;100832.97;4916391;29;20416;-75
2023/01/02 07:40:32;;;;;;;10.30;4.20;;;;;;;14.41;60.44;100835.13;4917814;29;20481;-71
2023/01/02 07:43:01;;;;;;;11.70;4.27;;;;;;;14.41;60.75;100840.56;4910838;29;20440;-73
2023/01/02 07:45:33;;;;;;;7.30;5.33;;;;;;;14.50;60.96;100838.34;4919704;29;20904;-73
2023/01/02 07:48:02;;;;;;;6.20;3.60;;;;;;;14.31;61.23;100840.25;4919613;29;20458;-74
2023/01/02 07:50:31;;;;;;;7.63;3.70;;;;;;;14.38;61.03;100834.75;4918465;29;20433;-74
2023/01/02 07:53:01;;;;;;;5.93;3.60;;;;;;;14.32;61.17;100837.31;4917295;29;20444;-74
2023/01/02 07:55:30;;;;;;;7.43;3.50;;;;;;;14.44;60.81;100840.09;4918290;29;20431;-73
2023/01/02 07:57:59;;;;;;;7.30;3.07;;;;;;;14.43;60.54;100843.03;4918514;29;20416;-73
2023/01/02 08:00:28;;;;;;;7.00;4.50;;;;;;;14.52;60.12;100844.41;4918641;29;20476;-72
2023/01/02 08:03:01;;;;;;;5.90;3.27;;;;;;;14.61;59.59;100848.47;4911905;29;20420;-73
2023/01/02 08:05:33;;;;;;;5.50;3.23;;;;;;;14.65;59.62;100855.97;4917800;29;20467;-74
2023/01/02 08:08:04;;;;;;;7.40;3.63;;;;;;;14.69;59.60;100849.00;4913160;29;20432;-73
2023/01/02 08:10:38;;;;;;;6.67;3.73;;;;;;;14.65;59.54;100857.84;4917924;29;20433;-72
2023/01/02 08:13:08;;;;;;;8.23;3.40;;;;;;;14.74;59.20;100851.03;4943194;28;20449;-72
2023/01/02 08:15:39;;;;;;;6.23;3.40;;;;;;;14.85;58.99;100843.97;4929426;29;20656;-74
2023/01/02 08:18:11;;;;;;;11.70;3.80;;;;;;;14.78;58.88;100846.78;4914281;29;20441;-73
2023/01/02 08:20:45;;;;;;;7.63;4.37;;;;;;;14.82;58.76;100841.69;4914129;29;20448;-72
2023/01/02 08:23:23;;;;;;;5.10;3.47;;;;;;;14.87;58.65;100839.94;4924438;29;20445;-72
2023/01/02 08:25:57;;;;;;;4.83;3.20;;;;;;;14.84;58.68;100840.41;4941892;29;20463;-73
2023/01/02 08:28:33;;;;;;;7.33;3.57;;;;;;;14.95;57.97;100852.41;4931800;29;20465;-73
2023/01/02 08:31:10;;;;;;;9.07;3.53;;;;;;;14.96;57.91;100857.59;4937354;28;20428;-74
2023/01/02 08:33:41;;;;;;;7.10;3.83;;;;;;;15.00;57.77;100855.28;4903698;29;20431;-74
2023/01/02 08:36:13;;;;;;;7.13;3.13;;;;;;;15.02;57.46;100855.84;4936597;29;20772;-73
2023/01/02 08:38:47;;;;;;;10.80;3.20;;;;;;;15.17;56.74;100851.66;4947158;28;20489;-74
2023/01/02 08:41:33;;;;;;;8.00;3.23;;;;;;;15.17;56.68;100851.66;4922433;29;20436;-71
2023/01/02 08:44:03;;;;;;;10.63;3.83;;;;;;;15.16;56.76;100855.44;4900739;29;20424;-73
2023/01/02 08:46:35;;;;;;;4.90;2.63;;;;;;;15.18;56.44;100853.31;4945530;28;20454;-75
2023/01/02 08:49:11;;;;;;;5.17;3.47;;;;;;;15.32;56.20;100847.66;4923553;29;20408;-73
2023/01/02 08:51:41;;;;;;;8.37;4.43;;;;;;;15.25;56.02;100849.66;4914850;29;20511;-73
2023/01/02 08:54:13;;;;;;;5.50;3.53;;;;;;;15.29;55.85;100861.75;4933991;28;20958;-74
2023/01/02 08:56:43;;;;;;;8.90;3.87;;;;;;;15.28;56.17;100857.34;4946624;29;20446;-73
2023/01/02 08:59:17;;;;;;;5.80;3.30;;;;;;;15.35;55.80;100863.53;4941418;28;20428;-72
2023/01/02 09:01:48;;;;;;;7.37;3.20;;;;;;;15.44;55.64;100862.13;4913172;29;20455;-73
2023/01/02 09:04:19;;;;;;;8.80;3.10;;;;;;;15.42;55.35;100861.53;4914978;29;20444;-72
2023/01/02 09:06:50;;;;;;;6.20;3.57;;;;;;;15.44;55.53;100871.13;4946339;28;20950;-73
2023/01/02 09:09:22;;;;;;;5.70;2.90;;;;;;;15.52;54.91;100864.53;4912068;29;20412;-74
2023/01/02 09:11:54;;;;;;;4.73;3.03;;;;;;;15.53;54.93;100871.66;4929591;29;20948;-72
2023/01/02 09:14:31;;;;;;;5.67;3.20;;;;;;;15.50;55.22;100862.00;4914948;28;20723;-72
2023/01/02 09:17:03;;;;;;;5.90;3.67;;;;;;;15.52;54.97;100870.84;4929816;29;21089;-71
2023/01/02 09:19:34;;;;;;;10.20;3.50;;;;;;;15.69;54.68;100870.94;4914193;29;20491;-72
2023/01/02 09:22:06;;;;;;;4.73;3.40;;;;;;;15.73;54.46;100869.44;4938705;29;21200;-72
2023/01/02 09:24:40;;;;;;;3.97;3.00;;;;;;;15.64;54.34;100871.66;4942901;28;20480;-73
2023/01/02 09:27:11;;;;;;;7.70;3.90;;;;;;;15.70;54.20;100871.78;4921720;29;20453;-70
2023/01/02 09:29:41;;;;;;;7.03;3.27;;;;;;;15.66;54.18;100865.97;4918292;29;20425;-70
2023/01/02 09:32:11;;;;;;;8.13;2.90;;;;;;;15.61;54.39;100874.03;4915707;29;20443;-74
2023/01/02 09:34:49;;;;;;;5.20;3.47;;;;;;;15.64;54.54;100873.56;4916764;29;21356;-70
2023/01/02 09:37:19;;;;;;;6.73;2.93;;;;;;;15.70;54.07;100878.06;4924656;29;20467;-73
2023/01/02 09:39:51;;;;;;;7.13;3.00;;;;;;;15.74;53.95;100878.44;4938238;29;20833;-73
2023/01/02 09:42:21;;;;;;;5.73;3.17;;;;;;;15.79;53.87;100864.91;4922886;29;20457;-73
2023/01/02 09:45:00;;;;;;;5.17;3.70;;;;;;;15.84;53.70;100865.03;4935648;29;20435;-73
2023/01/02 09:47:44;;;;;;;8.80;2.40;;;;;;;15.95;53.22;100865.03;4933808;29;20509;-74
2023/01/02 09:50:21;;;;;;;6.27;3.53;;;;;;;15.94;53.12;100863.38;4912372;29;20407;-71
2023/01/02 09:52:57;;;;;;;6.13;2.97;;;;;;;16.08;52.80;100847.56;4920013;29;20738;-71
2023/01/02 09:55:46;;;;;;;4.87;3.23;;;;;;;16.01;52.91;100853.19;4928992;29;20447;-71
2023/01/02 09:58:27;;;;;;;4.93;3.90;;;;;;;15.92;53.15;100838.22;4922183;29;20412;-71
2023/01/02 10:01:00;;;;;;;5.93;3.40;;;;;;;16.06;53.20;100845.09;4919453;29;20862;-71
2023/01/02 10:03:42;;;;;;;12.43;3.93;;;;;;;16.23;52.43;100838.88;4914745;29;20457;-71
2023/01/02 10:06:24;;;;;;;7.10;3.20;;;;;;;16.26;52.22;100835.69;4930627;29;20436;-70
2023/01/02 10:09:09;;;;;;;5.53;3.50;;;;;;;16.17;52.43;100835.22;4934378;28;20460;-71
2023/01/02 10:12:00;;;;;;;5.27;3.53;;;;;;;16.28;51.98;100834.38;4931274;29;21025;-70
2023/01/02 10:14:39;;;;;;;6.53;3.30;;;;;;;16.21;52.17;100830.13;4921051;29;20443;-70
2023/01/02 10:17:20;;;;;;;4.03;2.40;;;;;;;16.19;52.18;100821.31;4916825;29;20422;-70
2023/01/02 10:19:56;;;;;;;5.77;3.03;;;;;;;16.46;51.43;100833.34;4924069;29;20456;-71
2023/01/02 10:22:33;;;;;;;5.50;3.97;;;;;;;16.49;51.52;100824.69;4936088;29;20462;-68
2023/01/02 10:25:14;;;;;;;8.47;3.80;;;;;;;16.57;51.47;100816.09;4924071;29;20556;-69
2023/01/02 10:27:54;;;;;;;7.83;3.27;;;;;;;16.58;51.12;100808.75;4916533;29;20432;-69
2023/01/02 10:30:35;;;;;;;6.70;2.90;;;;;;;16.53;51.44;100817.66;4952634;28;20427;-70
2023/01/02 10:33:16;;;;;;;8.33;3.70;;;;;;;16.40;51.24;100809.75;4953660;28;20786;-70
2023/01/02 10:35:56;;;;;;;5.30;3.03;;;;;;;16.26;51.62;100816.56;4945942;29;20447;-69
2023/01/02 10:41:26;;;;;;;4.60;3.60;;;;;;;16.27;51.83;100801.81;4949670;23;20463;-72
2023/01/02 10:44:00;;;;;;;7.80;4.17;;;;;;;16.32;51.48;100796.47;4943282;29;20423;-71
2023/01/02 10:46:31;;;;;;;6.17;3.93;;;;;;;16.20;51.51;100801.16;4944464;29;20403;-73
2023/01/02 10:49:01;;;;;;;6.07;3.23;;;;;;;16.19;51.77;100800.31;4944379;29;20491;-76
2023/01/02 10:51:32;;;;;;;7.67;3.20;;;;;;;16.16;51.79;100802.72;4942742;29;20882;-73
2023/01/02 10:54:03;;;;;;;6.60;3.00;;;;;;;16.19;51.80;100818.59;4933516;29;20410;-75
2023/01/02 10:56:35;;;;;;;5.93;2.47;;;;;;;16.13;52.15;100800.44;4937361;29;20439;-73
2023/01/02 10:59:20;;;;;;;4.17;3.10;;;;;;;16.14;52.04;100800.22;4929997;29;20836;-73
2023/01/02 11:01:57;;;;;;;4.10;2.80;;;;;;;16.15;51.69;100801.88;4930267;29;20470;-73
2023/01/02 11:04:28;;;;;;;4.27;3.23;;;;;;;16.22;51.87;100808.00;4932679;29;20478;-72
2023/01/02 11:07:01;;;;;;;9.97;2.73;;;;;;;16.31;51.86;100801.13;4934808;29;20807;-72
2023/01/02 11:09:32;;;;;;;8.43;2.70;;;;;;;16.35;51.68;100807.75;4920694;29;20532;-72
2023/01/02 11:12:10;;;;;;;6.13;3.07;;;;;;;16.30;52.05;100801.38;4936249;29;20455;-74
2023/01/02 11:15:12;;;;;;;11.03;3.07;;;;;;;16.30;52.25;100809.56;4935133;29;20484;-73
2023/01/02 11:17:44;;;;;;;9.90;3.60;;;;;;;16.14;52.87;100807.56;4934870;29;20419;-75
2023/01/02 11:20:24;;;;;;;9.20;4.07;;;;;;;16.06;54.19;100801.44;4935465;29;20422;-74
2023/01/02 11:22:57;;;;;;;8.00;3.80;;;;;;;16.09;54.96;100798.22;4930659;29;20440;-72
2023/01/02 11:25:29;;;;;;;7.87;4.10;;;;;;;15.97;55.67;100793.84;4934293;29;20423;-72
2023/01/02 11:28:00;;;;;;;8.87;3.60;;;;;;;15.79;56.32;100794.81;4938527;29;20402;-72
2023/01/02 11:30:37;;;;;;;7.77;4.20;;;;;;;15.85;56.93;100791.13;4938072;29;20422;-73
2023/01/02 11:33:20;;;;;;;5.97;3.33;;;;;;;15.67;56.88;100794.00;4937607;29;20436;-72
2023/01/02 11:35:51;;;;;;;5.93;3.40;;;;;;;15.69;57.37;100799.19;4935280;29;20813;-74
2023/01/02 11:38:22;;;;;;;5.23;2.83;;;;;;;15.75;56.88;100804.53;4933964;29;20443;-72
2023/01/02 11:41:00;;;;;;;6.10;3.57;;;;;;;15.82;56.65;100801.69;4939011;29;20546;-73
2023/01/02 11:43:50;;;;;;;10.00;3.00;;;;;;;15.78;56.22;100808.69;4939236;29;20411;-72
2023/01/02 11:46:28;;;;;;;11.17;4.67;;;;;;;15.82;57.14;100805.25;4933927;29;20464;-73
2023/01/02 11:49:06;;;;;;;4.17;3.60;;;;;;;15.82;56.89;100805.25;4934263;29;20442;-73
2023/01/02 11:51:39;;;;;;;6.20;2.80;;;;;;;15.76;57.18;100799.91;4937191;29;20452;-74
2023/01/02 11:54:13;;;;;;;11.60;3.10;;;;;;;15.75;57.03;100804.53;4938825;29;20476;-77
2023/01/02 11:56:45;;;;;;;6.17;3.00;;;;;;;15.71;57.28;100818.88;4944213;29;20414;-76
2023/01/02 11:59:19;;;;;;;5.37;2.70;;;;;;;15.91;57.70;100820.19;4948170;29;20446;-77
2023/01/02 12:01:57;;;;;;;10.97;4.10;;;;;;;15.68;58.13;100814.75;4943361;29;20508;-76
2023/01/02 12:04:27;;;;;;;12.37;3.30;;;;;;;15.71;58.38;100814.28;4952077;29;20431;-76
2023/01/02 12:07:11;;;;;;;11.70;3.80;;;;;;;15.74;58.11;100802.88;4951478;29;20609;-78
2023/01/02 12:09:50;;;;;;;7.37;3.97;;;;;;;15.77;57.52;100812.50;4935183;29;20475;-77
2023/01/02 12:12:36;;;;;;;4.60;3.40;;;;;;;15.59;57.69;100805.25;4918161;29;20423;-75
2023/01/02 12:15:30;;;;;;;6.17;3.83;;;;;;;15.63;57.32;100806.44;4932021;29;21008;-75
2023/01/02 12:18:12;;;;;;;8.77;5.03;;;;;;;15.59;57.62;100807.97;4930170;29;20427;-76
2023/01/02 12:20:51;;;;;;;6.67;3.13;;;;;;;15.68;57.07;100806.56;4930148;29;20444;-77
2023/01/02 12:23:44;;;;;;;4.53;3.37;;;;;;;15.70;57.24;100806.31;4931249;29;20464;-74
2023/01/02 12:26:15;;;;;;;6.93;3.30;;;;;;;15.63;57.89;100795.53;4928155;29;20520;-78